Time;durP1;ratioP1;P1;durP2;ratioP2;P2;SDS_P1;SDS_P2;PMS_P1;PMS_P2;Temp;Humidity;BMP_temperature;BMP_pressure;BME280_temperature;BME280_humidity;BME280_pressure;Samples;Min_cycle;Max_cycle;Signal;HPM_P1;HPM_P2
2022/02/25 00:02:04;;;;;;;37.17;13.37;;;;;;;4.33;60.55;98418.63;2303799;77;20953;-83
2022/02/25 00:05:05;;;;;;;29.97;11.87;;;;;;;4.33;60.69;98416.05;2304512;77;20909;-84
2022/02/25 00:08:05;;;;;;;26.77;12.67;;;;;;;4.31;60.72;98418.13;2303990;77;20925;-83
2022/02/25 00:11:06;;;;;;;29.13;12.93;;;;;;;4.27;60.64;98406.83;2304382;77;20927;-83
2022/02/25 00:14:06;;;;;;;23.43;12.00;;;;;;;4.24;60.64;98406.73;2304816;77;20894;-84
2022/02/25 00:17:07;;;;;;;27.00;12.20;;;;;;;4.24;60.78;98416.20;2304363;77;21016;-85
2022/02/25 00:20:07;;;;;;;46.47;11.97;;;;;;;4.23;60.75;98415.31;2304671;77;20914;-83
2022/02/25 00:23:08;;;;;;;39.50;13.10;;;;;;;4.21;60.81;98414.39;2304810;77;20906;-84
2022/02/25 00:26:08;;;;;;;29.43;12.13;;;;;;;4.21;60.88;98414.81;2305046;77;20940;-84
2022/02/25 00:29:09;;;;;;;28.87;11.73;;;;;;;4.18;60.93;98413.43;2305081;77;20941;-84
2022/02/25 00:32:10;;;;;;;25.07;11.60;;;;;;;4.11;61.20;98412.37;2305567;77;20958;-84
2022/02/25 00:35:11;;;;;;;28.93;11.73;;;;;;;4.05;61.62;98408.31;2305452;77;20921;-85
2022/02/25 00:38:11;;;;;;;25.83;12.37;;;;;;;3.96;61.75;98405.45;2305530;77;20914;-84
2022/02/25 00:41:12;;;;;;;27.93;10.93;;;;;;;3.94;62.05;98410.98;2305494;77;20878;-85
2022/02/25 00:44:13;;;;;;;31.00;12.07;;;;;;;3.90;62.21;98418.16;2305488;77;20917;-85
2022/02/25 00:47:13;;;;;;;22.87;9.97;;;;;;;3.90;62.08;98413.88;2305387;77;21008;-83
2022/02/25 00:50:14;;;;;;;21.70;9.70;;;;;;;3.96;61.91;98409.32;2304873;77;20989;-85
2022/02/25 00:53:14;;;;;;;23.10;9.40;;;;;;;4.03;61.62;98408.26;2305299;77;20932;-84
2022/02/25 00:56:15;;;;;;;14.23;7.90;;;;;;;4.11;61.33;98411.95;2304736;77;20905;-84
2022/02/25 00:59:16;;;;;;;16.87;8.37;;;;;;;4.22;61.04;98410.10;2305235;77;20910;-85
2022/02/25 01:02:16;;;;;;;22.70;8.87;;;;;;;4.30;60.47;98405.63;2305726;77;20901;-84
2022/02/25 01:05:17;;;;;;;19.80;8.37;;;;;;;4.39;60.31;98398.59;2305674;77;20960;-84
2022/02/25 01:08:17;;;;;;;18.20;7.93;;;;;;;4.47;60.20;98390.64;2305605;77;20983;-83
2022/02/25 01:11:19;;;;;;;17.90;7.80;;;;;;;4.53;59.95;98395.11;2305964;77;20941;-84
2022/02/25 01:14:19;;;;;;;18.43;8.17;;;;;;;4.57;59.71;98390.06;2305569;77;20997;-83
2022/02/25 01:17:20;;;;;;;16.37;8.00;;;;;;;4.60;59.72;98393.16;2305240;77;20973;-82
2022/02/25 01:20:20;;;;;;;17.40;7.03;;;;;;;4.61;59.57;98389.31;2303968;77;20933;-83
2022/02/25 01:23:21;;;;;;;21.83;8.87;;;;;;;4.64;59.19;98385.94;2304099;77;20928;-83
2022/02/25 01:26:21;;;;;;;14.87;7.60;;;;;;;4.68;59.08;98379.60;2305087;77;20936;-82
2022/02/25 01:29:22;;;;;;;16.80;6.97;;;;;;;4.70;59.17;98381.81;2304800;77;20941;-83
2022/02/25 01:32:23;;;;;;;17.43;7.50;;;;;;;4.73;59.14;98378.02;2304655;77;20925;-81
2022/02/25 01:35:23;;;;;;;15.13;7.00;;;;;;;4.78;58.88;98378.14;2303492;77;20961;-82
2022/02/25 01:38:24;;;;;;;23.30;8.07;;;;;;;4.81;58.81;98380.81;2302541;77;21005;-82
2022/02/25 01:41:24;;;;;;;19.07;7.90;;;;;;;4.83;58.71;98379.14;2302741;77;21347;-81
2022/02/25 01:44:25;;;;;;;14.83;7.47;;;;;;;4.85;58.43;98369.72;2302748;77;21360;-82
2022/02/25 01:47:25;;;;;;;18.33;6.97;;;;;;;4.86;58.61;98361.55;2302656;77;20993;-82
2022/02/25 01:50:26;;;;;;;14.17;7.00;;;;;;;4.85;58.60;98371.42;2303881;77;20890;-82
2022/02/25 01:53:26;;;;;;;18.30;7.43;;;;;;;4.86;58.37;98359.83;2304664;77;20917;-82
2022/02/25 01:56:27;;;;;;;18.77;7.73;;;;;;;4.87;58.53;98358.99;2304612;77;20944;-82
2022/02/25 01:59:27;;;;;;;22.07;7.37;;;;;;;4.89;58.47;98370.25;2304398;77;20913;-82
2022/02/25 02:02:28;;;;;;;14.23;6.57;;;;;;;4.90;58.62;98357.78;2304225;77;20949;-82
2022/02/25 02:05:28;;;;;;;13.80;7.47;;;;;;;4.92;58.45;98353.94;2304300;77;20878;-82
2022/02/25 02:08:29;;;;;;;23.17;7.27;;;;;;;4.93;58.44;98356.56;2304357;77;20906;-82
2022/02/25 02:11:29;;;;;;;18.37;6.87;;;;;;;4.94;58.27;98355.73;2304899;77;20906;-82
2022/02/25 02:14:30;;;;;;;49.87;8.60;;;;;;;4.95;58.47;98351.02;2304265;77;20918;-83
2022/02/25 02:17:30;;;;;;;23.23;7.30;;;;;;;4.97;58.29;98347.17;2291182;76;21416;-83
2022/02/25 02:20:31;;;;;;;40.77;7.47;;;;;;;4.99;58.06;98341.20;2285763;78;21033;-81
2022/02/25 02:23:32;;;;;;;25.47;7.70;;;;;;;4.99;58.11;98338.63;2284927;78;21033;-81
2022/02/25 02:26:33;;;;;;;24.00;7.10;;;;;;;5.01;58.12;98336.95;2285759;78;20927;-83
2022/02/25 02:29:33;;;;;;;27.60;7.83;;;;;;;5.00;57.90;98330.44;2285415;78;21436;-83
2022/02/25 02:32:34;;;;;;;21.10;7.57;;;;;;;4.99;58.00;98342.50;2286464;78;20927;-82
2022/02/25 02:35:35;;;;;;;105.33;11.43;;;;;;;4.99;58.04;98343.80;2285637;78;20951;-79
2022/02/25 02:38:35;;;;;;;20.73;6.90;;;;;;;4.99;58.00;98344.22;2285053;78;20958;-80
2022/02/25 02:41:36;;;;;;;17.53;6.60;;;;;;;5.00;57.84;98348.13;2285728;78;20931;-83
2022/02/25 02:44:36;;;;;;;16.43;6.53;;;;;;;5.02;57.60;98346.45;2286017;78;20924;-82
2022/02/25 02:47:37;;;;;;;22.17;6.50;;;;;;;5.03;57.61;98345.63;2286064;78;21421;-83
2022/02/25 02:50:37;;;;;;;20.63;6.90;;;;;;;5.00;57.65;98344.25;2285996;78;20997;-82
2022/02/25 02:53:38;;;;;;;13.83;6.73;;;;;;;5.00;57.81;98349.42;2286248;78;20946;-82
2022/02/25 02:56:38;;;;;;;13.03;5.43;;;;;;;5.01;57.71;98352.89;2286941;78;20920;-83
2022/02/25 02:59:39;;;;;;;13.03;6.83;;;;;;;5.01;57.38;98353.77;2287616;78;20939;-83
2022/02/25 03:02:39;;;;;;;16.57;7.10;;;;;;;4.99;57.57;98354.14;2286815;78;20928;-83
2022/02/25 03:05:40;;;;;;;22.73;6.57;;;;;;;4.94;57.59;98353.56;2287330;78;20902;-83
2022/02/25 03:08:41;;;;;;;15.57;6.93;;;;;;;4.90;57.84;98353.91;2286891;78;20958;-84
2022/02/25 03:11:41;;;;;;;14.87;6.80;;;;;;;4.86;57.74;98349.48;2285917;78;20919;-83
2022/02/25 03:14:41;;;;;;;13.33;6.57;;;;;;;4.84;57.95;98346.41;2286873;78;20876;-82
2022/02/25 03:17:42;;;;;;;25.23;7.27;;;;;;;4.80;57.92;98349.33;2298097;77;21384;-79
2022/02/25 03:20:43;;;;;;;18.77;7.10;;;;;;;4.80;57.67;98350.62;2304212;77;20983;-82
2022/02/25 03:23:44;;;;;;;19.10;7.10;;;;;;;4.80;57.94;98351.91;2304238;77;21224;-83
2022/02/25 03:26:44;;;;;;;14.97;6.87;;;;;;;4.75;58.11;98356.08;2304219;77;20988;-82
2022/02/25 03:29:45;;;;;;;32.07;7.97;;;;;;;4.72;58.23;98349.54;2303753;77;20944;-80
2022/02/25 03:32:46;;;;;;;15.67;7.00;;;;;;;4.72;58.22;98353.41;2303315;77;20945;-83
2022/02/25 03:35:46;;;;;;;16.97;6.73;;;;;;;4.74;58.41;98364.67;2303754;77;20886;-83
2022/02/25 03:38:47;;;;;;;15.43;7.13;;;;;;;4.68;58.54;98361.92;2303586;77;20913;-83
2022/02/25 03:41:47;;;;;;;13.13;7.00;;;;;;;4.67;58.67;98361.47;2304875;77;20912;-83
2022/02/25 03:44:48;;;;;;;11.67;6.70;;;;;;;4.65;58.60;98351.08;2304324;77;20969;-83
2022/02/25 03:47:48;;;;;;;21.10;6.53;;;;;;;4.68;58.67;98334.78;2303559;77;21079;-79
2022/02/25 03:50:48;;;;;;;15.40;6.87;;;;;;;4.71;58.63;98345.20;2303491;77;20918;-84
2022/02/25 03:53:49;;;;;;;22.07;7.20;;;;;;;4.77;58.63;98347.95;2304760;77;20918;-83
2022/02/25 03:56:49;;;;;;;13.27;7.10;;;;;;;4.74;58.47;98353.91;2305283;77;20901;-83
2022/02/25 03:59:50;;;;;;;59.73;8.53;;;;;;;4.74;58.74;98364.67;2305416;77;20921;-81
2022/02/25 04:02:50;;;;;;;18.07;6.77;;;;;;;4.72;58.93;98381.86;2305116;77;21320;-84
2022/02/25 04:05:51;;;;;;;14.37;7.00;;;;;;;4.66;59.13;98391.61;2305004;77;20906;-84
2022/02/25 04:08:51;;;;;;;14.67;7.23;;;;;;;4.60;59.22;98401.78;2305362;77;20939;-84
2022/02/25 04:11:52;;;;;;;16.70;6.80;;;;;;;4.55;59.49;98406.36;2304705;77;20918;-84
2022/02/25 04:14:52;;;;;;;15.63;6.67;;;;;;;4.48;59.66;98415.23;2305127;77;20878;-84
2022/02/25 04:17:53;;;;;;;13.47;6.30;;;;;;;4.45;59.95;98422.02;2304551;77;21405;-84
2022/02/25 04:20:53;;;;;;;13.57;6.07;;;;;;;4.52;60.10;98423.95;2304393;77;20909;-84
2022/02/25 04:23:54;;;;;;;20.43;6.53;;;;;;;4.63;60.21;98424.26;2303726;77;20909;-83
2022/02/25 04:26:54;;;;;;;11.27;5.70;;;;;;;4.75;59.91;98433.66;2304515;77;20984;-84
2022/02/25 04:29:55;;;;;;;12.37;6.57;;;;;;;4.90;59.75;98426.73;2304837;77;20929;-84
2022/02/25 04:32:55;;;;;;;16.63;6.90;;;;;;;5.06;59.61;98434.95;2305148;77;20897;-85
2022/02/25 04:35:56;;;;;;;13.83;6.37;;;;;;;5.20;59.62;98435.73;2304725;77;21942;-83
2022/02/25 04:38:56;;;;;;;10.90;6.13;;;;;;;5.30;59.42;98436.47;2304611;77;20970;-83
2022/02/25 04:41:57;;;;;;;14.93;6.40;;;;;;;5.40;59.20;98440.63;2304472;77;20961;-83
2022/02/25 04:44:57;;;;;;;12.80;5.93;;;;;;;5.49;58.94;98443.86;2303996;77;20966;-81
2022/02/25 04:47:58;;;;;;;18.10;7.00;;;;;;;5.58;58.86;98454.45;2303505;77;21057;-81
2022/02/25 04:50:59;;;;;;;15.77;6.37;;;;;;;5.64;58.59;98450.72;2302579;77;20956;-80
2022/02/25 04:53:59;;;;;;;67.37;8.37;;;;;;;5.70;58.73;98467.70;2301349;77;20957;-81
2022/02/25 04:56:59;;;;;;;17.90;6.67;;;;;;;5.73;58.54;98473.38;2302904;77;20898;-81
2022/02/25 05:00:00;;;;;;;14.90;6.20;;;;;;;5.80;58.59;98469.23;2303226;77;20942;-81
2022/02/25 05:03:01;;;;;;;18.03;6.53;;;;;;;5.84;58.69;98475.81;2303530;77;20948;-81
2022/02/25 05:06:01;;;;;;;13.70;5.90;;;;;;;5.84;58.82;98478.41;2303309;77;20905;-81
2022/02/25 05:09:02;;;;;;;26.97;7.37;;;;;;;5.87;58.76;98485.38;2302876;77;21043;-82
2022/02/25 05:12:03;;;;;;;21.23;6.77;;;;;;;5.88;58.77;98479.35;2302203;77;20956;-80
2022/02/25 05:21:41;;;;;;;13.57;5.47;;;;;;;5.90;59.03;98517.44;2281638;78;21002;-79
2022/02/25 05:24:42;;;;;;;8.73;4.87;;;;;;;5.89;59.07;98523.46;2282056;78;21002;-82
2022/02/25 05:27:42;;;;;;;9.57;5.20;;;;;;;5.88;59.08;98529.86;2282410;78;20971;-81
2022/02/25 05:30:43;;;;;;;6.97;4.37;;;;;;;5.88;59.16;98546.70;2282192;78;20946;-82
2022/02/25 05:33:44;;;;;;;7.57;3.77;;;;;;;5.85;59.33;98540.15;2282286;78;21002;-81
2022/02/25 05:36:45;;;;;;;9.70;3.87;;;;;;;5.84;59.47;98555.23;2282485;78;21041;-81
2022/02/25 05:39:45;;;;;;;10.43;4.80;;;;;;;5.80;59.79;98555.98;2281912;78;21013;-77
2022/02/25 05:42:46;;;;;;;10.77;4.63;;;;;;;5.78;59.73;98563.72;2281861;78;21030;-82
2022/02/25 05:45:46;;;;;;;8.67;4.37;;;;;;;5.75;59.96;98576.17;2282523;78;20974;-82
2022/02/25 05:48:47;;;;;;;4.80;3.10;;;;;;;5.73;60.37;98589.50;2282778;78;21417;-82
2022/02/25 05:51:48;;;;;;;4.07;2.63;;;;;;;5.66;61.26;98607.42;2282302;78;21438;-81
2022/02/25 05:54:48;;;;;;;3.07;1.70;;;;;;;5.57;61.79;98613.23;2283377;78;20970;-82
2022/02/25 05:57:49;;;;;;;2.07;1.87;;;;;;;5.45;62.91;98624.53;2283761;78;21025;-82
2022/02/25 06:00:49;;;;;;;2.13;1.83;;;;;;;5.33;63.24;98628.06;2284571;78;21013;-79
2022/02/25 06:03:50;;;;;;;3.60;2.07;;;;;;;5.22;63.98;98632.93;2284039;78;20962;-80
2022/02/25 06:06:50;;;;;;;4.33;2.30;;;;;;;5.12;64.79;98662.80;2283937;78;21432;-81
2022/02/25 06:09:51;;;;;;;3.97;2.20;;;;;;;4.99;65.43;98664.96;2283444;78;21029;-83
2022/02/25 06:12:51;;;;;;;2.97;2.47;;;;;;;4.86;65.61;98669.29;2282754;78;20950;-82
2022/02/25 06:15:52;;;;;;;0.80;0.80;;;;;;;4.74;66.67;98669.37;2282340;78;21004;-82
2022/02/25 06:21:59;;;;;;;4.13;1.40;;;;;;;4.48;67.81;98690.50;2261266;78;21049;-82
2022/02/25 06:24:59;;;;;;;1.63;1.50;;;;;;;4.35;69.03;98692.63;2293541;77;21008;-83
2022/02/25 06:28:00;;;;;;;1.63;1.53;;;;;;;4.23;70.66;98702.09;2300263;77;21404;-83
2022/02/25 06:31:00;;;;;;;2.27;1.77;;;;;;;4.10;71.50;98690.87;2274580;77;20953;-83
2022/02/25 06:34:01;;;;;;;3.03;2.40;;;;;;;4.04;71.46;98695.83;2301281;77;20909;-82
2022/02/25 06:37:03;;;;;;;1.40;1.30;;;;;;;4.04;73.00;98696.70;2301324;77;21074;-84
2022/02/25 06:40:04;;;;;;;1.47;1.37;;;;;;;4.02;72.82;98700.06;2301674;77;21426;-79
2022/02/25 06:43:05;;;;;;;3.50;2.20;;;;;;;3.98;72.65;98711.98;2300557;77;20983;-83
2022/02/25 06:46:05;;;;;;;6.93;3.40;;;;;;;3.93;73.24;98718.69;2300903;77;21211;-81
2022/02/25 06:49:06;;;;;;;3.07;2.20;;;;;;;3.95;73.21;98729.08;2299681;77;20984;-82
2022/02/25 06:52:06;;;;;;;4.13;2.50;;;;;;;3.96;73.81;98734.70;2299865;77;21328;-80
2022/02/25 06:55:07;;;;;;;5.27;2.80;;;;;;;3.92;74.23;98745.34;2300179;77;21326;-78
2022/02/25 06:58:07;;;;;;;6.83;3.30;;;;;;;3.92;74.53;98753.09;2300001;77;20948;-82
2022/02/25 07:01:11;;;;;;;7.27;2.90;;;;;;;3.96;73.98;98745.92;2300377;77;20995;-82
2022/02/25 07:04:11;;;;;;;5.37;3.03;;;;;;;4.00;73.91;98746.91;2300366;77;21486;-83
2022/02/25 07:07:12;;;;;;;8.43;4.23;;;;;;;4.03;73.79;98748.31;2300505;77;21020;-83
2022/02/25 07:10:13;;;;;;;15.80;6.90;;;;;;;4.15;73.76;98754.79;2274128;77;22034;-82
2022/02/25 07:13:14;;;;;;;14.47;7.73;;;;;;;4.29;73.73;98773.36;2300353;77;21039;-81
2022/02/25 07:16:15;;;;;;;12.80;6.60;;;;;;;4.35;73.60;98779.19;2300100;77;21409;-83
2022/02/25 07:19:15;;;;;;;14.40;7.90;;;;;;;4.39;73.34;98788.40;2311789;76;21461;-83
2022/02/25 07:22:16;;;;;;;5.00;3.60;;;;;;;4.43;73.16;98800.60;2314165;77;21039;-82
2022/02/25 07:25:16;;;;;;;7.03;3.13;;;;;;;4.37;73.12;98801.68;2314086;77;20963;-79
2022/02/25 07:28:16;;;;;;;7.07;4.33;;;;;;;4.31;73.60;98808.30;2312956;77;21010;-81
2022/02/25 07:31:17;;;;;;;8.80;4.30;;;;;;;4.25;73.50;98824.46;2315281;77;20979;-83
2022/02/25 07:34:18;;;;;;;6.13;3.60;;;;;;;4.24;73.39;98818.83;2314535;77;22002;-81
2022/02/25 07:37:19;;;;;;;5.87;3.80;;;;;;;4.23;73.90;98827.41;2313886;77;20943;-83
2022/02/25 07:40:19;;;;;;;7.00;4.00;;;;;;;4.23;73.54;98835.56;2314015;77;20978;-83
2022/02/25 07:43:23;;;;;;;7.70;3.67;;;;;;;4.30;73.35;98829.80;2314141;77;20959;-84
2022/02/25 07:46:23;;;;;;;6.77;3.27;;;;;;;4.40;73.47;98830.22;2314501;77;21017;-84
2022/02/25 07:49:24;;;;;;;5.13;3.23;;;;;;;4.45;73.17;98841.59;2314554;77;21061;-85
2022/02/25 07:52:24;;;;;;;5.60;4.10;;;;;;;4.52;73.13;98848.28;2316128;77;20955;-81
2022/02/25 07:55:25;;;;;;;6.93;4.30;;;;;;;4.63;72.60;98843.07;2315644;77;20993;-82
2022/02/25 07:58:25;;;;;;;7.60;4.43;;;;;;;4.73;72.21;98852.91;2315548;77;20927;-82
2022/02/25 08:01:26;;;;;;;8.83;5.03;;;;;;;4.86;71.92;98856.38;2315113;77;20975;-82
2022/02/25 08:04:27;;;;;;;7.47;4.60;;;;;;;4.97;71.33;98864.09;2315287;77;20974;-82
2022/02/25 08:07:27;;;;;;;7.20;4.60;;;;;;;5.07;70.67;98868.75;2314175;77;20998;-81
2022/02/25 08:10:28;;;;;;;5.40;3.00;;;;;;;5.14;70.59;98865.95;2314117;77;20927;-83
2022/02/25 08:13:28;;;;;;;4.97;3.57;;;;;;;5.20;69.14;98869.16;2314142;77;21203;-82
2022/02/25 08:16:29;;;;;;;4.93;3.00;;;;;;;5.21;68.41;98877.42;2314547;77;20971;-81
2022/02/25 08:19:29;;;;;;;6.07;3.90;;;;;;;5.26;68.68;98882.34;2314691;77;21468;-82
2022/02/25 08:22:30;;;;;;;3.93;3.00;;;;;;;5.32;68.26;98876.07;2315326;77;20938;-83
2022/02/25 08:25:32;;;;;;;8.00;4.40;;;;;;;5.34;67.99;98881.77;2315931;77;21005;-82
2022/02/25 08:28:32;;;;;;;5.90;4.07;;;;;;;5.35;67.03;98892.58;2314806;77;21074;-83
2022/02/25 08:31:33;;;;;;;7.07;4.30;;;;;;;5.29;67.41;98894.97;2313989;77;21397;-83
2022/02/25 08:34:34;;;;;;;7.40;5.47;;;;;;;5.21;67.25;98895.55;2313491;77;20962;-82
2022/02/25 08:37:34;;;;;;;5.63;4.30;;;;;;;5.20;67.14;98896.34;2314824;77;20970;-83
2022/02/25 08:40:35;;;;;;;11.13;5.77;;;;;;;5.20;66.74;98892.45;2315026;77;21025;-83
2022/02/25 08:46:57;;;;;;;6.90;4.30;;;;;;;5.22;66.42;98916.30;2315230;77;21046;-82
2022/02/25 08:49:58;;;;;;;8.90;5.67;;;;;;;5.21;63.96;98914.53;2315872;77;21305;-81
2022/02/25 08:52:58;;;;;;;11.07;5.13;;;;;;;5.18;62.58;98918.69;2315876;77;20986;-81
2022/02/25 08:55:59;;;;;;;12.50;4.87;;;;;;;5.21;61.45;98915.83;2315675;77;20978;-82
2022/02/25 08:58:59;;;;;;;6.10;3.70;;;;;;;5.34;61.21;98919.71;2316080;77;21394;-82
2022/02/25 09:02:00;;;;;;;8.77;3.80;;;;;;;5.49;59.33;98920.63;2315202;77;21017;-82
2022/02/25 09:05:02;;;;;;;3.27;2.40;;;;;;;5.54;58.35;98933.31;2314720;77;20971;-82
2022/02/25 09:08:03;;;;;;;5.77;2.87;;;;;;;5.64;58.47;98931.08;2315151;77;21465;-83
2022/02/25 09:11:03;;;;;;;5.63;2.80;;;;;;;5.64;57.28;98928.48;2315218;77;20951;-82
2022/02/25 09:14:04;;;;;;;9.00;4.40;;;;;;;5.62;58.81;98932.73;2314615;77;21437;-82
2022/02/25 09:17:05;;;;;;;6.67;3.43;;;;;;;5.82;59.34;98938.97;2313829;77;21019;-83
2022/02/25 09:20:06;;;;;;;5.80;3.50;;;;;;;5.90;58.11;98935.83;2300523;77;21442;-82
2022/02/25 09:23:07;;;;;;;4.37;3.13;;;;;;;5.89;57.90;98937.95;2301285;77;21006;-79
2022/02/25 09:26:08;;;;;;;7.03;4.50;;;;;;;5.91;58.44;98944.06;2301867;77;20965;-83
2022/02/25 09:29:09;;;;;;;5.40;3.93;;;;;;;5.80;57.62;98940.64;2302184;77;21365;-82
2022/02/25 09:32:10;;;;;;;4.47;3.40;;;;;;;5.63;57.90;98948.73;2302275;77;20997;-83
2022/02/25 09:35:10;;;;;;;4.97;3.03;;;;;;;5.56;59.06;98946.78;2302332;77;21193;-82
2022/02/25 09:38:11;;;;;;;7.97;4.40;;;;;;;5.53;59.39;98954.86;2300828;77;20940;-81
2022/02/25 09:41:11;;;;;;;6.60;4.20;;;;;;;5.61;59.61;98956.87;2299970;77;20960;-82
2022/02/25 09:44:12;;;;;;;5.03;3.30;;;;;;;5.68;59.79;98957.54;2301251;77;20964;-83
2022/02/25 09:47:12;;;;;;;5.47;2.90;;;;;;;5.76;58.77;98965.14;2300762;77;20960;-82
2022/02/25 09:50:13;;;;;;;5.03;2.10;;;;;;;5.73;56.52;98964.16;2300340;77;20997;-82
2022/02/25 09:53:14;;;;;;;5.07;2.40;;;;;;;5.66;55.61;98971.27;2300296;77;20972;-82
2022/02/25 09:56:18;;;;;;;6.60;3.60;;;;;;;5.65;56.43;98975.98;2300471;77;21017;-82
2022/02/25 09:59:22;;;;;;;6.13;3.77;;;;;;;6.09;56.12;98987.84;2300805;77;21017;-80
2022/02/25 10:02:22;;;;;;;4.62;2.55;;;;;;;6.70;54.19;98982.81;2301199;77;21023;-82
2022/02/25 10:05:23;;;;;;;2.70;1.97;;;;;;;7.16;54.69;98968.98;2300877;77;20952;-82
2022/02/25 10:08:23;;;;;;;10.77;3.47;;;;;;;7.63;51.33;98969.81;2301113;77;21643;-81
2022/02/25 10:11:24;;;;;;;7.23;3.30;;;;;;;7.86;50.25;98982.53;2301707;77;20965;-81
2022/02/25 10:14:24;;;;;;;8.47;4.93;;;;;;;7.62;50.51;98984.94;2301147;77;20964;-82
2022/02/25 10:17:25;;;;;;;15.70;4.10;;;;;;;7.55;50.35;98982.14;2301352;77;21005;-80
2022/02/25 10:20:25;;;;;;;5.10;3.03;;;;;;;7.77;51.76;98990.94;2301563;77;20985;-81
2022/02/25 10:23:26;;;;;;;7.83;4.00;;;;;;;8.13;49.24;98990.12;2302502;77;20948;-81
2022/02/25 10:26:27;;;;;;;7.43;4.60;;;;;;;8.23;50.40;98983.87;2301942;77;20945;-80
2022/02/25 10:29:27;;;;;;;14.47;4.20;;;;;;;8.08;49.18;98990.42;2300926;77;21690;-80
2022/02/25 10:32:28;;;;;;;8.47;3.80;;;;;;;8.08;50.00;99003.42;2301755;77;21043;-83
2022/02/25 10:35:29;;;;;;;5.30;3.60;;;;;;;8.02;49.51;99008.48;2301166;77;20960;-83
2022/02/25 10:38:29;;;;;;;6.37;3.20;;;;;;;8.27;49.09;99002.59;2302014;77;20984;-83
2022/02/25 10:41:30;;;;;;;4.90;3.80;;;;;;;8.45;49.12;98994.37;2301066;77;21329;-83
2022/02/25 10:44:30;;;;;;;12.73;4.10;;;;;;;8.64;48.22;98986.55;2301026;77;20956;-83
2022/02/25 10:47:31;;;;;;;5.67;3.10;;;;;;;8.72;47.80;98995.86;2301050;77;21039;-83
2022/02/25 10:50:31;;;;;;;4.47;2.50;;;;;;;8.79;46.63;98993.41;2301983;77;21016;-82
2022/02/25 10:53:32;;;;;;;7.33;3.43;;;;;;;8.47;46.79;99017.81;2301164;77;20962;-83
2022/02/25 10:56:32;;;;;;;6.43;4.07;;;;;;;8.07;46.00;99015.55;2301673;77;21547;-81
2022/02/25 10:59:33;;;;;;;5.07;2.30;;;;;;;7.85;47.15;99009.36;2301798;77;20983;-81
2022/02/25 11:02:35;;;;;;;8.70;3.73;;;;;;;7.50;47.03;99015.80;2274831;77;21051;-83
2022/02/25 11:05:36;;;;;;;14.57;3.00;;;;;;;7.25;48.94;99012.08;2300261;77;20972;-81
2022/02/25 11:08:36;;;;;;;6.30;2.67;;;;;;;7.15;48.10;99009.64;2300167;77;20980;-83
2022/02/25 11:11:37;;;;;;;7.27;3.00;;;;;;;6.95;47.46;99015.98;2300759;77;20959;-82
2022/02/25 11:14:39;;;;;;;4.07;2.10;;;;;;;6.75;47.76;99025.75;2301284;77;20940;-82
2022/02/25 11:17:40;;;;;;;6.57;3.93;;;;;;;6.49;47.62;99022.79;2300951;76;21306;-83
2022/02/25 11:20:43;;;;;;;8.00;4.80;;;;;;;6.28;48.77;99019.11;2314074;77;21045;-83
2022/02/25 11:23:44;;;;;;;7.57;2.93;;;;;;;6.18;48.93;99023.13;2313969;77;21350;-85
2022/02/25 11:26:44;;;;;;;10.57;4.70;;;;;;;6.29;50.00;99029.53;2313032;77;21021;-82
2022/02/25 11:29:45;;;;;;;7.13;3.80;;;;;;;6.43;50.53;99026.08;2313554;77;21310;-83
2022/02/25 11:32:45;;;;;;;21.90;8.40;;;;;;;6.41;50.97;99034.64;2283198;77;20978;-83
2022/02/25 11:35:46;;;;;;;7.87;3.50;;;;;;;6.42;51.74;99029.50;2314474;77;20950;-83
2022/02/25 11:38:47;;;;;;;10.13;5.20;;;;;;;6.79;49.78;99029.31;2314642;77;21514;-82
2022/02/25 11:41:47;;;;;;;8.10;3.47;;;;;;;7.17;48.34;99033.05;2315892;77;21244;-83
2022/02/25 11:44:48;;;;;;;7.07;2.93;;;;;;;7.51;47.49;99027.06;2315301;77;20939;-83
2022/02/25 11:50:51;;;;;;;8.87;3.70;;;;;;;7.83;44.44;99029.23;2284994;77;21062;-83
2022/02/25 11:53:51;;;;;;;9.97;3.50;;;;;;;7.64;45.54;99036.52;2315431;77;20990;-83
2022/02/25 11:56:52;;;;;;;4.07;2.60;;;;;;;7.54;46.06;99030.63;2316558;77;20978;-82
2022/02/25 11:59:55;;;;;;;5.80;3.33;;;;;;;7.38;47.23;99040.14;2316277;77;20998;-83
2022/02/25 12:02:55;;;;;;;10.67;4.70;;;;;;;7.27;47.79;99032.47;2315285;77;20998;-83
2022/02/25 12:05:55;;;;;;;7.93;3.60;;;;;;;7.13;47.63;99032.50;2315314;77;20939;-82
2022/02/25 12:08:56;;;;;;;6.73;3.50;;;;;;;7.04;47.61;99037.02;2314104;77;21017;-83
2022/02/25 12:11:56;;;;;;;7.83;3.47;;;;;;;6.93;47.72;99042.28;2315284;77;20971;-82
2022/02/25 12:14:56;;;;;;;8.83;3.90;;;;;;;6.94;48.32;99044.07;2315074;77;20967;-80
2022/02/25 12:17:58;;;;;;;8.33;4.20;;;;;;;7.06;47.31;99043.13;2315336;77;21848;-81
2022/02/25 12:20:59;;;;;;;5.13;2.47;;;;;;;7.11;47.18;99050.63;2315321;77;20955;-80
2022/02/25 12:24:02;;;;;;;20.30;2.97;;;;;;;7.53;47.11;99038.38;2316171;77;20974;-82
2022/02/25 12:27:02;;;;;;;5.90;3.00;;;;;;;7.86;46.56;99041.01;2315389;77;20987;-81
2022/02/25 12:30:06;;;;;;;10.13;3.60;;;;;;;8.07;45.53;99039.36;2316341;77;21050;-78
2022/02/25 12:33:06;;;;;;;6.17;2.83;;;;;;;8.14;45.36;99049.95;2314871;77;21013;-81
2022/02/25 12:36:07;;;;;;;6.30;2.73;;;;;;;8.23;45.30;99038.48;2314993;77;21010;-82
2022/02/25 12:39:09;;;;;;;7.13;3.03;;;;;;;8.30;43.98;99042.98;2284213;77;20995;-80
2022/02/25 12:42:10;;;;;;;7.87;3.37;;;;;;;8.40;44.50;99038.03;2316295;77;20998;-81
2022/02/25 12:45:10;;;;;;;3.83;2.47;;;;;;;8.39;43.74;99044.08;2314624;77;20946;-84
2022/02/25 12:48:11;;;;;;;9.10;3.33;;;;;;;8.31;41.97;99039.54;2313999;77;21037;-78
2022/02/25 12:51:11;;;;;;;6.67;3.50;;;;;;;8.17;42.78;99047.43;2314681;77;21033;-83
2022/02/25 12:54:12;;;;;;;6.43;3.47;;;;;;;7.91;42.81;99049.38;2314603;77;20986;-82
2022/02/25 12:57:12;;;;;;;7.40;3.73;;;;;;;7.51;43.86;99065.61;2313262;77;20959;-83
2022/02/25 13:00:13;;;;;;;9.03;4.20;;;;;;;7.27;44.91;99062.33;2313470;77;21002;-82
2022/02/25 13:03:13;;;;;;;6.13;3.10;;;;;;;7.01;45.57;99061.16;2313820;77;20939;-82
2022/02/25 13:06:14;;;;;;;5.80;3.10;;;;;;;6.76;45.64;99072.91;2314179;77;20950;-82
2022/02/25 13:09:14;;;;;;;12.20;3.47;;;;;;;6.56;47.00;99083.97;2313817;77;21006;-82
2022/02/25 13:12:20;;;;;;;7.23;4.10;;;;;;;6.47;47.21;99078.91;2313733;77;21003;-83
2022/02/25 13:15:20;;;;;;;6.50;4.63;;;;;;;6.42;47.17;99077.89;2314782;77;21402;-82
2022/02/25 13:18:21;;;;;;;7.23;3.30;;;;;;;6.49;47.05;99080.72;2314676;77;20951;-83
2022/02/25 13:21:22;;;;;;;8.43;3.80;;;;;;;6.45;46.57;99079.28;2314042;77;21081;-81
2022/02/25 13:24:23;;;;;;;5.30;2.83;;;;;;;6.57;47.08;99080.97;2314544;77;20994;-83
2022/02/25 13:27:23;;;;;;;6.10;2.00;;;;;;;6.61;46.21;99075.03;2315309;77;20990;-81
2022/02/25 13:30:24;;;;;;;4.53;2.73;;;;;;;6.84;46.25;99067.95;2314531;77;20955;-82
2022/02/25 13:33:24;;;;;;;9.23;3.23;;;;;;;7.02;45.18;99069.41;2313607;77;21681;-80
2022/02/25 13:36:25;;;;;;;6.57;2.53;;;;;;;7.27;44.93;99075.31;2314413;77;21002;-80
2022/02/25 13:39:25;;;;;;;12.97;3.10;;;;;;;7.53;45.22;99070.42;2315338;77;20935;-82
2022/02/25 13:42:26;;;;;;;9.13;3.73;;;;;;;7.78;44.21;99068.48;2316510;77;21323;-83
2022/02/25 13:45:27;;;;;;;11.50;2.87;;;;;;;7.87;44.11;99071.36;2316013;77;21351;-83
2022/02/25 13:55:06;;;;;;;11.57;5.17;;;;;;;7.26;44.84;99074.44;2315732;77;21014;-83
2022/02/25 13:58:07;;;;;;;11.33;6.70;;;;;;;6.98;44.84;99084.84;2315350;77;21011;-83
2022/02/25 14:01:08;;;;;;;12.80;5.53;;;;;;;6.91;45.48;99085.05;2315589;77;21018;-84
2022/02/25 14:04:08;;;;;;;8.13;3.10;;;;;;;6.92;45.37;99079.02;2315864;77;21342;-84
2022/02/25 14:07:09;;;;;;;8.23;3.10;;;;;;;7.01;44.79;99082.34;2314774;77;20982;-82
2022/02/25 14:10:10;;;;;;;5.63;2.27;;;;;;;7.03;45.49;99084.16;2314299;77;21449;-83
2022/02/25 14:13:10;;;;;;;9.83;3.60;;;;;;;7.06;44.30;99082.48;2315191;77;21245;-81
2022/02/25 14:16:11;;;;;;;18.03;3.80;;;;;;;7.14;45.20;99080.98;2314292;77;20919;-82
2022/02/25 14:19:11;;;;;;;9.97;3.57;;;;;;;7.19;44.11;99079.41;2311434;77;21039;-82
2022/02/25 14:22:12;;;;;;;3.93;2.20;;;;;;;7.18;43.76;99087.61;2301384;77;21012;-81
2022/02/25 14:25:12;;;;;;;10.17;4.10;;;;;;;7.20;43.20;99086.36;2301745;77;21882;-82
2022/02/25 14:28:13;;;;;;;9.63;3.87;;;;;;;7.19;43.85;99086.78;2301151;77;21438;-81
2022/02/25 14:31:17;;;;;;;10.87;5.80;;;;;;;7.27;43.32;99081.38;2302033;77;20952;-80
2022/02/25 14:34:16;;;;;;;9.47;4.40;;;;;;;7.22;43.89;99093.77;2301309;77;21056;-80
2022/02/25 14:37:16;;;;;;;13.33;5.50;;;;;;;7.08;43.30;99096.38;2301121;77;21352;-81